sensor_id;sensor_type;location;lat;lon;timestamp;P1;durP1;ratioP1;P2;durP2;ratioP2
47882;SDS011;37739;50.350;7.578;2023-08-31T00:00:49;4.00;;;3.60;;
47882;SDS011;37739;50.350;7.578;2023-08-31T00:03:16;3.50;;;3.20;;
47882;SDS011;37739;50.350;7.578;2023-08-31T00:05:44;3.83;;;3.43;;
47882;SDS011;37739;50.350;7.578;2023-08-31T00:08:12;3.70;;;3.10;;
47882;SDS011;37739;50.350;7.578;2023-08-31T00:10:37;4.20;;;3.80;;
47882;SDS011;37739;50.350;7.578;2023-08-31T00:13:03;3.43;;;3.10;;
47882;SDS011;37739;50.350;7.578;2023-08-31T00:15:34;6.77;;;3.70;;
47882;SDS011;37739;50.350;7.578;2023-08-31T00:18:01;4.30;;;3.90;;
47882;SDS011;37739;50.350;7.578;2023-08-31T00:20:28;3.50;;;3.20;;
47882;SDS011;37739;50.350;7.578;2023-08-31T00:22:55;3.90;;;3.53;;
47882;SDS011;37739;50.350;7.578;2023-08-31T00:25:20;4.00;;;3.60;;
47882;SDS011;37739;50.350;7.578;2023-08-31T00:27:46;4.20;;;3.43;;
47882;SDS011;37739;50.350;7.578;2023-08-31T00:30:13;4.60;;;3.63;;
47882;SDS011;37739;50.350;7.578;2023-08-31T00:32:39;4.33;;;3.00;;
47882;SDS011;37739;50.350;7.578;2023-08-31T00:35:07;4.37;;;3.97;;
47882;SDS011;37739;50.350;7.578;2023-08-31T00:37:33;4.87;;;3.97;;
47882;SDS011;37739;50.350;7.578;2023-08-31T00:39:59;4.17;;;3.77;;
47882;SDS011;37739;50.350;7.578;2023-08-31T00:42:25;5.73;;;3.27;;
47882;SDS011;37739;50.350;7.578;2023-08-31T00:44:51;4.00;;;3.70;;
47882;SDS011;37739;50.350;7.578;2023-08-31T00:47:16;4.73;;;3.70;;
47882;SDS011;37739;50.350;7.578;2023-08-31T00:49:42;3.33;;;3.03;;
47882;SDS011;37739;50.350;7.578;2023-08-31T00:52:08;3.83;;;3.20;;
47882;SDS011;37739;50.350;7.578;2023-08-31T00:54:34;4.23;;;3.83;;
47882;SDS011;37739;50.350;7.578;2023-08-31T00:57:03;4.10;;;3.80;;
47882;SDS011;37739;50.350;7.578;2023-08-31T00:59:30;3.40;;;3.10;;
47882;SDS011;37739;50.350;7.578;2023-08-31T01:02:00;4.03;;;3.63;;
47882;SDS011;37739;50.350;7.578;2023-08-31T01:04:41;4.13;;;3.20;;
47882;SDS011;37739;50.350;7.578;2023-08-31T01:07:21;4.00;;;3.60;;
47882;SDS011;37739;50.350;7.578;2023-08-31T01:10:04;5.70;;;3.60;;
47882;SDS011;37739;50.350;7.578;2023-08-31T01:12:39;3.80;;;3.50;;
47882;SDS011;37739;50.350;7.578;2023-08-31T01:15:15;4.37;;;3.97;;
47882;SDS011;37739;50.350;7.578;2023-08-31T01:17:45;3.80;;;3.50;;
47882;SDS011;37739;50.350;7.578;2023-08-31T01:20:45;4.07;;;3.67;;
47882;SDS011;37739;50.350;7.578;2023-08-31T01:23:19;4.77;;;4.27;;
47882;SDS011;37739;50.350;7.578;2023-08-31T01:25:46;4.40;;;4.07;;
47882;SDS011;37739;50.350;7.578;2023-08-31T01:28:13;3.50;;;3.07;;
47882;SDS011;37739;50.350;7.578;2023-08-31T01:30:39;3.90;;;3.60;;
47882;SDS011;37739;50.350;7.578;2023-08-31T01:33:05;3.97;;;3.63;;
47882;SDS011;37739;50.350;7.578;2023-08-31T01:35:38;3.83;;;3.23;;
47882;SDS011;37739;50.350;7.578;2023-08-31T01:38:10;5.83;;;3.50;;
47882;SDS011;37739;50.350;7.578;2023-08-31T01:43:28;5.23;;;4.10;;
47882;SDS011;37739;50.350;7.578;2023-08-31T01:45:58;4.33;;;3.93;;
47882;SDS011;37739;50.350;7.578;2023-08-31T01:48:28;3.80;;;3.47;;
47882;SDS011;37739;50.350;7.578;2023-08-31T01:50:57;4.73;;;4.00;;
47882;SDS011;37739;50.350;7.578;2023-08-31T01:53:25;4.37;;;3.97;;
47882;SDS011;37739;50.350;7.578;2023-08-31T01:55:52;3.77;;;3.47;;
47882;SDS011;37739;50.350;7.578;2023-08-31T01:58:18;4.63;;;3.73;;
47882;SDS011;37739;50.350;7.578;2023-08-31T02:00:43;3.90;;;3.50;;
47882;SDS011;37739;50.350;7.578;2023-08-31T02:03:12;7.27;;;4.23;;
47882;SDS011;37739;50.350;7.578;2023-08-31T02:05:37;3.70;;;2.90;;
47882;SDS011;37739;50.350;7.578;2023-08-31T02:08:04;4.70;;;4.00;;
47882;SDS011;37739;50.350;7.578;2023-08-31T02:10:30;3.87;;;3.57;;
47882;SDS011;37739;50.350;7.578;2023-08-31T02:12:55;4.87;;;4.37;;
47882;SDS011;37739;50.350;7.578;2023-08-31T02:15:20;4.57;;;4.17;;
47882;SDS011;37739;50.350;7.578;2023-08-31T02:17:46;4.33;;;3.93;;
47882;SDS011;37739;50.350;7.578;2023-08-31T02:20:11;3.80;;;3.50;;
47882;SDS011;37739;50.350;7.578;2023-08-31T02:22:39;5.27;;;4.10;;
47882;SDS011;37739;50.350;7.578;2023-08-31T02:25:04;4.57;;;3.47;;
47882;SDS011;37739;50.350;7.578;2023-08-31T02:27:34;4.50;;;3.80;;
47882;SDS011;37739;50.350;7.578;2023-08-31T02:29:59;4.13;;;3.23;;
47882;SDS011;37739;50.350;7.578;2023-08-31T02:32:25;2.90;;;2.70;;
47882;SDS011;37739;50.350;7.578;2023-08-31T02:34:51;4.17;;;3.30;;
47882;SDS011;37739;50.350;7.578;2023-08-31T02:37:18;4.67;;;3.50;;
47882;SDS011;37739;50.350;7.578;2023-08-31T02:39:46;3.30;;;3.00;;
47882;SDS011;37739;50.350;7.578;2023-08-31T02:42:14;3.40;;;3.10;;
47882;SDS011;37739;50.350;7.578;2023-08-31T02:44:39;3.97;;;3.37;;
47882;SDS011;37739;50.350;7.578;2023-08-31T02:47:06;3.27;;;2.83;;
47882;SDS011;37739;50.350;7.578;2023-08-31T02:49:34;3.60;;;3.07;;
47882;SDS011;37739;50.350;7.578;2023-08-31T02:52:02;3.27;;;2.93;;
47882;SDS011;37739;50.350;7.578;2023-08-31T02:54:30;3.20;;;2.90;;
47882;SDS011;37739;50.350;7.578;2023-08-31T02:56:57;3.80;;;3.07;;
47882;SDS011;37739;50.350;7.578;2023-08-31T02:59:23;4.00;;;2.83;;
47882;SDS011;37739;50.350;7.578;2023-08-31T03:01:48;3.77;;;2.83;;
47882;SDS011;37739;50.350;7.578;2023-08-31T03:04:16;3.00;;;2.80;;
47882;SDS011;37739;50.350;7.578;2023-08-31T03:06:42;3.80;;;3.40;;
47882;SDS011;37739;50.350;7.578;2023-08-31T03:09:07;4.13;;;3.03;;
47882;SDS011;37739;50.350;7.578;2023-08-31T03:11:34;2.93;;;2.67;;
47882;SDS011;37739;50.350;7.578;2023-08-31T03:14:02;3.10;;;2.80;;
47882;SDS011;37739;50.350;7.578;2023-08-31T03:16:27;4.00;;;3.17;;
47882;SDS011;37739;50.350;7.578;2023-08-31T03:18:53;5.97;;;2.53;;
47882;SDS011;37739;50.350;7.578;2023-08-31T03:21:18;4.40;;;3.37;;
47882;SDS011;37739;50.350;7.578;2023-08-31T03:23:44;3.57;;;2.27;;
47882;SDS011;37739;50.350;7.578;2023-08-31T03:26:10;3.00;;;2.80;;
47882;SDS011;37739;50.350;7.578;2023-08-31T03:28:35;3.13;;;2.50;;
47882;SDS011;37739;50.350;7.578;2023-08-31T03:31:01;6.20;;;3.07;;
47882;SDS011;37739;50.350;7.578;2023-08-31T03:33:26;4.73;;;3.40;;
47882;SDS011;37739;50.350;7.578;2023-08-31T03:35:52;3.03;;;2.53;;
47882;SDS011;37739;50.350;7.578;2023-08-31T03:38:19;3.90;;;2.83;;
47882;SDS011;37739;50.350;7.578;2023-08-31T03:40:58;4.40;;;3.40;;
47882;SDS011;37739;50.350;7.578;2023-08-31T03:43:23;3.10;;;2.80;;
47882;SDS011;37739;50.350;7.578;2023-08-31T03:45:55;4.40;;;3.27;;
47882;SDS011;37739;50.350;7.578;2023-08-31T03:48:24;3.13;;;2.80;;
47882;SDS011;37739;50.350;7.578;2023-08-31T03:50:53;3.67;;;2.70;;
47882;SDS011;37739;50.350;7.578;2023-08-31T03:53:19;3.60;;;3.30;;
47882;SDS011;37739;50.350;7.578;2023-08-31T03:55:47;3.10;;;2.80;;
47882;SDS011;37739;50.350;7.578;2023-08-31T03:58:14;3.30;;;2.97;;
47882;SDS011;37739;50.350;7.578;2023-08-31T04:00:42;3.97;;;2.87;;
47882;SDS011;37739;50.350;7.578;2023-08-31T04:03:16;3.07;;;2.73;;
47882;SDS011;37739;50.350;7.578;2023-08-31T04:05:41;3.33;;;2.80;;
47882;SDS011;37739;50.350;7.578;2023-08-31T04:08:07;3.83;;;3.43;;
47882;SDS011;37739;50.350;7.578;2023-08-31T04:10:34;3.40;;;2.83;;
47882;SDS011;37739;50.350;7.578;2023-08-31T04:13:00;5.30;;;3.13;;
47882;SDS011;37739;50.350;7.578;2023-08-31T04:15:27;5.27;;;3.90;;
47882;SDS011;37739;50.350;7.578;2023-08-31T04:17:55;2.93;;;2.73;;
47882;SDS011;37739;50.350;7.578;2023-08-31T04:20:21;3.10;;;2.80;;
47882;SDS011;37739;50.350;7.578;2023-08-31T04:22:47;3.67;;;2.83;;
47882;SDS011;37739;50.350;7.578;2023-08-31T04:25:12;5.27;;;3.60;;
47882;SDS011;37739;50.350;7.578;2023-08-31T04:27:37;3.83;;;2.77;;
47882;SDS011;37739;50.350;7.578;2023-08-31T04:30:05;5.07;;;3.30;;
47882;SDS011;37739;50.350;7.578;2023-08-31T04:32:34;3.83;;;3.47;;
47882;SDS011;37739;50.350;7.578;2023-08-31T04:35:00;5.20;;;3.53;;
47882;SDS011;37739;50.350;7.578;2023-08-31T04:37:26;4.10;;;3.00;;
47882;SDS011;37739;50.350;7.578;2023-08-31T04:39:51;3.70;;;3.20;;
47882;SDS011;37739;50.350;7.578;2023-08-31T04:42:21;4.80;;;3.07;;
47882;SDS011;37739;50.350;7.578;2023-08-31T04:44:47;3.87;;;2.90;;
47882;SDS011;37739;50.350;7.578;2023-08-31T04:47:12;5.50;;;2.97;;
47882;SDS011;37739;50.350;7.578;2023-08-31T04:49:42;4.20;;;3.60;;
47882;SDS011;37739;50.350;7.578;2023-08-31T04:52:10;3.00;;;2.70;;
47882;SDS011;37739;50.350;7.578;2023-08-31T04:54:37;3.87;;;3.17;;
47882;SDS011;37739;50.350;7.578;2023-08-31T04:57:02;3.40;;;2.80;;
47882;SDS011;37739;50.350;7.578;2023-08-31T04:59:30;4.73;;;3.70;;
47882;SDS011;37739;50.350;7.578;2023-08-31T05:01:56;3.40;;;3.10;;
47882;SDS011;37739;50.350;7.578;2023-08-31T05:04:23;3.50;;;3.07;;
47882;SDS011;37739;50.350;7.578;2023-08-31T05:06:48;4.30;;;3.37;;
47882;SDS011;37739;50.350;7.578;2023-08-31T05:09:16;4.40;;;2.87;;
47882;SDS011;37739;50.350;7.578;2023-08-31T05:11:41;4.00;;;3.10;;
47882;SDS011;37739;50.350;7.578;2023-08-31T05:14:09;3.57;;;3.10;;
47882;SDS011;37739;50.350;7.578;2023-08-31T05:16:34;6.00;;;3.30;;
47882;SDS011;37739;50.350;7.578;2023-08-31T05:18:59;5.17;;;2.90;;
47882;SDS011;37739;50.350;7.578;2023-08-31T05:21:27;4.03;;;3.20;;
47882;SDS011;37739;50.350;7.578;2023-08-31T05:23:53;5.20;;;3.33;;
47882;SDS011;37739;50.350;7.578;2023-08-31T05:26:18;4.50;;;2.90;;
47882;SDS011;37739;50.350;7.578;2023-08-31T05:28:43;3.30;;;3.00;;
47882;SDS011;37739;50.350;7.578;2023-08-31T05:31:09;3.37;;;2.77;;
47882;SDS011;37739;50.350;7.578;2023-08-31T05:33:34;3.30;;;2.73;;
47882;SDS011;37739;50.350;7.578;2023-08-31T05:36:04;4.07;;;3.00;;
47882;SDS011;37739;50.350;7.578;2023-08-31T05:38:30;3.23;;;2.80;;
47882;SDS011;37739;50.350;7.578;2023-08-31T05:41:05;3.17;;;2.87;;
47882;SDS011;37739;50.350;7.578;2023-08-31T05:43:35;3.60;;;2.77;;
47882;SDS011;37739;50.350;7.578;2023-08-31T05:46:01;3.00;;;2.70;;
47882;SDS011;37739;50.350;7.578;2023-08-31T05:48:26;4.10;;;3.23;;
47882;SDS011;37739;50.350;7.578;2023-08-31T05:50:51;3.43;;;2.17;;
47882;SDS011;37739;50.350;7.578;2023-08-31T05:53:17;3.70;;;2.60;;
47882;SDS011;37739;50.350;7.578;2023-08-31T05:55:44;4.00;;;2.90;;
47882;SDS011;37739;50.350;7.578;2023-08-31T05:58:12;4.20;;;2.77;;
47882;SDS011;37739;50.350;7.578;2023-08-31T06:00:37;4.67;;;2.97;;
47882;SDS011;37739;50.350;7.578;2023-08-31T06:03:03;3.70;;;2.87;;
47882;SDS011;37739;50.350;7.578;2023-08-31T06:05:30;2.50;;;2.00;;
47882;SDS011;37739;50.350;7.578;2023-08-31T06:07:56;3.17;;;2.60;;
47882;SDS011;37739;50.350;7.578;2023-08-31T06:10:25;3.90;;;3.10;;
47882;SDS011;37739;50.350;7.578;2023-08-31T06:12:54;2.70;;;2.33;;
47882;SDS011;37739;50.350;7.578;2023-08-31T06:15:19;2.70;;;2.10;;
47882;SDS011;37739;50.350;7.578;2023-08-31T06:17:44;3.70;;;2.40;;
47882;SDS011;37739;50.350;7.578;2023-08-31T06:20:10;3.70;;;2.30;;
47882;SDS011;37739;50.350;7.578;2023-08-31T06:22:36;3.80;;;2.60;;
47882;SDS011;37739;50.350;7.578;2023-08-31T06:25:01;6.00;;;2.80;;
47882;SDS011;37739;50.350;7.578;2023-08-31T06:27:29;2.77;;;2.33;;
47882;SDS011;37739;50.350;7.578;2023-08-31T06:29:54;2.23;;;2.00;;
47882;SDS011;37739;50.350;7.578;2023-08-31T06:32:21;4.80;;;2.60;;
47882;SDS011;37739;50.350;7.578;2023-08-31T06:34:51;4.33;;;2.90;;
47882;SDS011;37739;50.350;7.578;2023-08-31T06:37:16;8.23;;;2.10;;
47882;SDS011;37739;50.350;7.578;2023-08-31T06:39:41;3.17;;;1.97;;
47882;SDS011;37739;50.350;7.578;2023-08-31T06:42:11;3.30;;;2.37;;
47882;SDS011;37739;50.350;7.578;2023-08-31T06:44:39;4.30;;;2.57;;
47882;SDS011;37739;50.350;7.578;2023-08-31T06:47:07;2.80;;;1.93;;
47882;SDS011;37739;50.350;7.578;2023-08-31T06:49:38;6.83;;;2.47;;
47882;SDS011;37739;50.350;7.578;2023-08-31T06:52:04;3.77;;;2.53;;
47882;SDS011;37739;50.350;7.578;2023-08-31T06:54:32;3.47;;;2.40;;
47882;SDS011;37739;50.350;7.578;2023-08-31T06:57:00;5.90;;;2.20;;
47882;SDS011;37739;50.350;7.578;2023-08-31T06:59:25;3.07;;;2.03;;
47882;SDS011;37739;50.350;7.578;2023-08-31T07:01:51;3.27;;;2.17;;
47882;SDS011;37739;50.350;7.578;2023-08-31T07:04:19;3.00;;;2.10;;
47882;SDS011;37739;50.350;7.578;2023-08-31T07:06:44;3.10;;;2.03;;
47882;SDS011;37739;50.350;7.578;2023-08-31T07:09:12;3.47;;;2.00;;
47882;SDS011;37739;50.350;7.578;2023-08-31T07:11:37;5.90;;;2.30;;
47882;SDS011;37739;50.350;7.578;2023-08-31T07:14:05;5.23;;;3.27;;
47882;SDS011;37739;50.350;7.578;2023-08-31T07:16:32;3.00;;;1.93;;
47882;SDS011;37739;50.350;7.578;2023-08-31T07:19:02;2.80;;;2.50;;
47882;SDS011;37739;50.350;7.578;2023-08-31T07:21:32;2.90;;;1.87;;
47882;SDS011;37739;50.350;7.578;2023-08-31T07:24:00;3.50;;;2.07;;
47882;SDS011;37739;50.350;7.578;2023-08-31T07:26:26;3.87;;;1.90;;
47882;SDS011;37739;50.350;7.578;2023-08-31T07:28:51;3.17;;;2.60;;
47882;SDS011;37739;50.350;7.578;2023-08-31T07:31:19;4.17;;;2.03;;
47882;SDS011;37739;50.350;7.578;2023-08-31T07:33:47;4.33;;;2.23;;
47882;SDS011;37739;50.350;7.578;2023-08-31T07:36:14;5.30;;;2.20;;
47882;SDS011;37739;50.350;7.578;2023-08-31T07:38:42;3.97;;;1.80;;
47882;SDS011;37739;50.350;7.578;2023-08-31T07:41:07;5.53;;;2.00;;
47882;SDS011;37739;50.350;7.578;2023-08-31T07:43:35;2.80;;;2.27;;
47882;SDS011;37739;50.350;7.578;2023-08-31T07:46:00;2.80;;;2.00;;
47882;SDS011;37739;50.350;7.578;2023-08-31T07:48:28;2.57;;;1.80;;
47882;SDS011;37739;50.350;7.578;2023-08-31T07:50:54;3.17;;;1.90;;
47882;SDS011;37739;50.350;7.578;2023-08-31T07:53:20;4.87;;;2.10;;
47882;SDS011;37739;50.350;7.578;2023-08-31T07:55:54;3.67;;;2.13;;
47882;SDS011;37739;50.350;7.578;2023-08-31T07:58:22;4.30;;;2.10;;
47882;SDS011;37739;50.350;7.578;2023-08-31T08:00:48;3.30;;;2.20;;
47882;SDS011;37739;50.350;7.578;2023-08-31T08:03:17;2.60;;;2.10;;
47882;SDS011;37739;50.350;7.578;2023-08-31T08:05:42;3.07;;;2.20;;
47882;SDS011;37739;50.350;7.578;2023-08-31T08:08:09;4.07;;;2.43;;
47882;SDS011;37739;50.350;7.578;2023-08-31T08:10:35;4.53;;;2.47;;
47882;SDS011;37739;50.350;7.578;2023-08-31T08:13:01;4.23;;;2.20;;
47882;SDS011;37739;50.350;7.578;2023-08-31T08:15:26;4.70;;;2.20;;
47882;SDS011;37739;50.350;7.578;2023-08-31T08:17:52;2.37;;;2.10;;
47882;SDS011;37739;50.350;7.578;2023-08-31T08:20:18;2.67;;;1.93;;
47882;SDS011;37739;50.350;7.578;2023-08-31T08:22:44;3.00;;;2.03;;
47882;SDS011;37739;50.350;7.578;2023-08-31T08:25:17;3.77;;;2.27;;
47882;SDS011;37739;50.350;7.578;2023-08-31T08:27:42;3.17;;;2.23;;
47882;SDS011;37739;50.350;7.578;2023-08-31T08:30:10;3.30;;;2.20;;
47882;SDS011;37739;50.350;7.578;2023-08-31T08:32:40;3.17;;;1.80;;
47882;SDS011;37739;50.350;7.578;2023-08-31T08:35:05;3.10;;;2.17;;
47882;SDS011;37739;50.350;7.578;2023-08-31T08:37:31;4.10;;;2.33;;
47882;SDS011;37739;50.350;7.578;2023-08-31T08:39:59;2.63;;;1.90;;
47882;SDS011;37739;50.350;7.578;2023-08-31T08:42:29;2.80;;;2.23;;
47882;SDS011;37739;50.350;7.578;2023-08-31T08:44:57;2.10;;;1.90;;
47882;SDS011;37739;50.350;7.578;2023-08-31T08:47:25;3.10;;;2.03;;
47882;SDS011;37739;50.350;7.578;2023-08-31T08:49:53;3.40;;;1.80;;
47882;SDS011;37739;50.350;7.578;2023-08-31T08:52:22;3.93;;;2.30;;
47882;SDS011;37739;50.350;7.578;2023-08-31T08:54:50;2.60;;;2.03;;
47882;SDS011;37739;50.350;7.578;2023-08-31T08:57:17;2.50;;;2.10;;
47882;SDS011;37739;50.350;7.578;2023-08-31T08:59:42;3.00;;;1.97;;
47882;SDS011;37739;50.350;7.578;2023-08-31T09:02:08;3.50;;;2.20;;
47882;SDS011;37739;50.350;7.578;2023-08-31T09:04:36;4.50;;;2.10;;
47882;SDS011;37739;50.350;7.578;2023-08-31T09:07:01;4.90;;;2.30;;
47882;SDS011;37739;50.350;7.578;2023-08-31T09:09:27;3.10;;;1.93;;
47882;SDS011;37739;50.350;7.578;2023-08-31T09:11:55;3.40;;;2.10;;
47882;SDS011;37739;50.350;7.578;2023-08-31T09:14:26;2.90;;;1.90;;
47882;SDS011;37739;50.350;7.578;2023-08-31T09:16:53;2.60;;;2.13;;
47882;SDS011;37739;50.350;7.578;2023-08-31T09:19:22;2.83;;;2.03;;
47882;SDS011;37739;50.350;7.578;2023-08-31T09:21:48;4.97;;;2.03;;
47882;SDS011;37739;50.350;7.578;2023-08-31T09:24:14;3.27;;;2.40;;
47882;SDS011;37739;50.350;7.578;2023-08-31T09:26:52;2.30;;;2.00;;
47882;SDS011;37739;50.350;7.578;2023-08-31T09:29:21;3.13;;;2.20;;
47882;SDS011;37739;50.350;7.578;2023-08-31T09:31:47;3.83;;;1.93;;
47882;SDS011;37739;50.350;7.578;2023-08-31T09:34:15;2.90;;;2.00;;
47882;SDS011;37739;50.350;7.578;2023-08-31T09:36:44;2.13;;;1.70;;
47882;SDS011;37739;50.350;7.578;2023-08-31T09:39:09;4.57;;;2.20;;
47882;SDS011;37739;50.350;7.578;2023-08-31T09:41:54;4.37;;;1.97;;
47882;SDS011;37739;50.350;7.578;2023-08-31T09:44:20;3.40;;;2.03;;
47882;SDS011;37739;50.350;7.578;2023-08-31T09:46:46;3.53;;;2.30;;
47882;SDS011;37739;50.350;7.578;2023-08-31T09:49:14;4.10;;;2.13;;
47882;SDS011;37739;50.350;7.578;2023-08-31T09:51:44;3.90;;;2.30;;
47882;SDS011;37739;50.350;7.578;2023-08-31T09:54:14;6.53;;;2.20;;
47882;SDS011;37739;50.350;7.578;2023-08-31T09:56:42;3.03;;;1.77;;
47882;SDS011;37739;50.350;7.578;2023-08-31T09:59:11;1.90;;;1.63;;
47882;SDS011;37739;50.350;7.578;2023-08-31T10:01:38;1.80;;;1.60;;
47882;SDS011;37739;50.350;7.578;2023-08-31T10:04:07;3.50;;;1.73;;
47882;SDS011;37739;50.350;7.578;2023-08-31T10:06:36;3.07;;;1.97;;
47882;SDS011;37739;50.350;7.578;2023-08-31T10:09:06;2.80;;;2.03;;
47882;SDS011;37739;50.350;7.578;2023-08-31T10:11:34;4.40;;;1.87;;
47882;SDS011;37739;50.350;7.578;2023-08-31T10:14:02;3.70;;;1.83;;
47882;SDS011;37739;50.350;7.578;2023-08-31T10:16:28;3.50;;;1.93;;
47882;SDS011;37739;50.350;7.578;2023-08-31T10:18:59;2.17;;;1.50;;
47882;SDS011;37739;50.350;7.578;2023-08-31T10:21:27;2.13;;;1.50;;
47882;SDS011;37739;50.350;7.578;2023-08-31T10:23:53;3.00;;;1.93;;
47882;SDS011;37739;50.350;7.578;2023-08-31T10:28:51;4.97;;;1.80;;
47882;SDS011;37739;50.350;7.578;2023-08-31T10:31:17;2.50;;;1.70;;
47882;SDS011;37739;50.350;7.578;2023-08-31T10:33:47;2.40;;;1.63;;
47882;SDS011;37739;50.350;7.578;2023-08-31T10:36:35;2.20;;;1.57;;
47882;SDS011;37739;50.350;7.578;2023-08-31T10:41:41;3.13;;;1.70;;
47882;SDS011;37739;50.350;7.578;2023-08-31T10:44:22;2.60;;;1.60;;
47882;SDS011;37739;50.350;7.578;2023-08-31T10:46:49;3.40;;;1.67;;
47882;SDS011;37739;50.350;7.578;2023-08-31T10:49:15;2.30;;;1.73;;
47882;SDS011;37739;50.350;7.578;2023-08-31T10:51:46;3.23;;;1.73;;
47882;SDS011;37739;50.350;7.578;2023-08-31T10:59:16;2.77;;;1.60;;
47882;SDS011;37739;50.350;7.578;2023-08-31T11:04:20;1.70;;;1.47;;
47882;SDS011;37739;50.350;7.578;2023-08-31T11:06:57;2.67;;;1.37;;
47882;SDS011;37739;50.350;7.578;2023-08-31T11:09:37;4.63;;;1.70;;
47882;SDS011;37739;50.350;7.578;2023-08-31T11:12:03;2.67;;;1.70;;
47882;SDS011;37739;50.350;7.578;2023-08-31T11:14:31;2.67;;;1.37;;
47882;SDS011;37739;50.350;7.578;2023-08-31T11:16:56;5.63;;;1.70;;
47882;SDS011;37739;50.350;7.578;2023-08-31T11:19:24;3.20;;;1.57;;
47882;SDS011;37739;50.350;7.578;2023-08-31T11:21:50;2.17;;;1.50;;
47882;SDS011;37739;50.350;7.578;2023-08-31T11:24:16;2.43;;;1.80;;
47882;SDS011;37739;50.350;7.578;2023-08-31T11:26:47;3.63;;;2.03;;
47882;SDS011;37739;50.350;7.578;2023-08-31T11:29:14;2.00;;;1.30;;
47882;SDS011;37739;50.350;7.578;2023-08-31T11:31:40;1.83;;;1.47;;
47882;SDS011;37739;50.350;7.578;2023-08-31T11:34:14;2.40;;;1.30;;
47882;SDS011;37739;50.350;7.578;2023-08-31T11:36:44;2.60;;;1.47;;
47882;SDS011;37739;50.350;7.578;2023-08-31T11:39:12;2.00;;;1.30;;
47882;SDS011;37739;50.350;7.578;2023-08-31T11:41:42;2.97;;;1.63;;
47882;SDS011;37739;50.350;7.578;2023-08-31T11:44:08;2.20;;;1.10;;
47882;SDS011;37739;50.350;7.578;2023-08-31T11:46:37;3.00;;;1.80;;
47882;SDS011;37739;50.350;7.578;2023-08-31T11:49:05;2.60;;;1.70;;
47882;SDS011;37739;50.350;7.578;2023-08-31T11:51:33;3.00;;;1.67;;
47882;SDS011;37739;50.350;7.578;2023-08-31T11:54:03;2.50;;;1.60;;
47882;SDS011;37739;50.350;7.578;2023-08-31T11:56:39;2.97;;;1.47;;
47882;SDS011;37739;50.350;7.578;2023-08-31T11:59:11;4.20;;;1.90;;
47882;SDS011;37739;50.350;7.578;2023-08-31T12:01:40;7.40;;;1.47;;
47882;SDS011;37739;50.350;7.578;2023-08-31T12:04:09;4.30;;;1.87;;
47882;SDS011;37739;50.350;7.578;2023-08-31T12:06:38;3.77;;;1.50;;
47882;SDS011;37739;50.350;7.578;2023-08-31T12:09:13;2.20;;;1.60;;
47882;SDS011;37739;50.350;7.578;2023-08-31T12:11:38;2.10;;;1.40;;
47882;SDS011;37739;50.350;7.578;2023-08-31T12:14:22;2.43;;;1.20;;
47882;SDS011;37739;50.350;7.578;2023-08-31T12:16:49;2.40;;;1.83;;
47882;SDS011;37739;50.350;7.578;2023-08-31T12:19:17;2.60;;;1.60;;
47882;SDS011;37739;50.350;7.578;2023-08-31T12:21:44;3.23;;;1.60;;
47882;SDS011;37739;50.350;7.578;2023-08-31T12:24:12;2.40;;;1.63;;
47882;SDS011;37739;50.350;7.578;2023-08-31T12:26:38;4.23;;;2.00;;
47882;SDS011;37739;50.350;7.578;2023-08-31T12:29:04;1.83;;;1.23;;
47882;SDS011;37739;50.350;7.578;2023-08-31T12:31:30;2.87;;;1.57;;
47882;SDS011;37739;50.350;7.578;2023-08-31T12:33:58;3.53;;;2.00;;
47882;SDS011;37739;50.350;7.578;2023-08-31T12:36:29;1.80;;;1.33;;
47882;SDS011;37739;50.350;7.578;2023-08-31T12:38:57;3.27;;;1.27;;
47882;SDS011;37739;50.350;7.578;2023-08-31T12:41:28;2.67;;;1.87;;
47882;SDS011;37739;50.350;7.578;2023-08-31T12:43:54;5.13;;;1.60;;
47882;SDS011;37739;50.350;7.578;2023-08-31T12:46:22;2.23;;;1.03;;
47882;SDS011;37739;50.350;7.578;2023-08-31T12:48:51;2.27;;;1.30;;
47882;SDS011;37739;50.350;7.578;2023-08-31T12:51:17;1.50;;;1.10;;
47882;SDS011;37739;50.350;7.578;2023-08-31T12:53:45;5.20;;;1.90;;
47882;SDS011;37739;50.350;7.578;2023-08-31T12:56:15;2.00;;;1.07;;
47882;SDS011;37739;50.350;7.578;2023-08-31T12:58:47;2.27;;;1.43;;
47882;SDS011;37739;50.350;7.578;2023-08-31T13:01:18;2.30;;;1.40;;
47882;SDS011;37739;50.350;7.578;2023-08-31T13:03:44;1.50;;;1.10;;
47882;SDS011;37739;50.350;7.578;2023-08-31T13:06:10;2.53;;;1.40;;
47882;SDS011;37739;50.350;7.578;2023-08-31T13:08:35;3.23;;;1.97;;
47882;SDS011;37739;50.350;7.578;2023-08-31T13:11:00;2.27;;;1.20;;
47882;SDS011;37739;50.350;7.578;2023-08-31T13:13:29;3.50;;;1.40;;
47882;SDS011;37739;50.350;7.578;2023-08-31T13:15:54;2.13;;;1.30;;
47882;SDS011;37739;50.350;7.578;2023-08-31T13:18:22;2.77;;;1.50;;
47882;SDS011;37739;50.350;7.578;2023-08-31T13:20:50;2.97;;;1.43;;
47882;SDS011;37739;50.350;7.578;2023-08-31T13:23:20;2.00;;;1.30;;
47882;SDS011;37739;50.350;7.578;2023-08-31T13:25:46;2.17;;;1.20;;
47882;SDS011;37739;50.350;7.578;2023-08-31T13:28:14;2.93;;;1.17;;
47882;SDS011;37739;50.350;7.578;2023-08-31T13:30:40;2.67;;;1.40;;
47882;SDS011;37739;50.350;7.578;2023-08-31T13:33:07;2.50;;;1.60;;
47882;SDS011;37739;50.350;7.578;2023-08-31T13:35:33;2.80;;;1.40;;
47882;SDS011;37739;50.350;7.578;2023-08-31T13:37:58;1.97;;;1.40;;
47882;SDS011;37739;50.350;7.578;2023-08-31T13:40:33;2.80;;;1.40;;
47882;SDS011;37739;50.350;7.578;2023-08-31T13:43:01;2.80;;;1.30;;
47882;SDS011;37739;50.350;7.578;2023-08-31T13:45:29;2.30;;;1.40;;
47882;SDS011;37739;50.350;7.578;2023-08-31T13:47:58;2.77;;;1.80;;
47882;SDS011;37739;50.350;7.578;2023-08-31T13:50:25;2.63;;;1.30;;
47882;SDS011;37739;50.350;7.578;2023-08-31T13:52:53;2.60;;;1.30;;
47882;SDS011;37739;50.350;7.578;2023-08-31T13:55:18;2.23;;;1.30;;
47882;SDS011;37739;50.350;7.578;2023-08-31T13:57:44;1.63;;;1.50;;
47882;SDS011;37739;50.350;7.578;2023-08-31T14:00:11;3.23;;;1.57;;
47882;SDS011;37739;50.350;7.578;2023-08-31T14:02:37;2.10;;;1.30;;
47882;SDS011;37739;50.350;7.578;2023-08-31T14:05:04;2.70;;;1.33;;
47882;SDS011;37739;50.350;7.578;2023-08-31T14:07:31;1.60;;;1.10;;
47882;SDS011;37739;50.350;7.578;2023-08-31T14:09:59;2.33;;;1.40;;
47882;SDS011;37739;50.350;7.578;2023-08-31T14:12:28;4.43;;;1.10;;
47882;SDS011;37739;50.350;7.578;2023-08-31T14:14:53;2.73;;;1.70;;
47882;SDS011;37739;50.350;7.578;2023-08-31T14:17:22;2.10;;;1.30;;
47882;SDS011;37739;50.350;7.578;2023-08-31T14:19:50;2.70;;;1.50;;
47882;SDS011;37739;50.350;7.578;2023-08-31T14:22:18;2.87;;;1.57;;
47882;SDS011;37739;50.350;7.578;2023-08-31T14:24:43;2.70;;;1.50;;
47882;SDS011;37739;50.350;7.578;2023-08-31T14:27:11;2.17;;;1.30;;
47882;SDS011;37739;50.350;7.578;2023-08-31T14:29:36;2.93;;;1.70;;
47882;SDS011;37739;50.350;7.578;2023-08-31T14:32:04;1.97;;;1.27;;
47882;SDS011;37739;50.350;7.578;2023-08-31T14:34:33;2.63;;;1.27;;
47882;SDS011;37739;50.350;7.578;2023-08-31T14:37:00;3.47;;;1.40;;
47882;SDS011;37739;50.350;7.578;2023-08-31T14:39:28;2.70;;;1.73;;
47882;SDS011;37739;50.350;7.578;2023-08-31T14:41:58;3.93;;;1.60;;
47882;SDS011;37739;50.350;7.578;2023-08-31T14:44:24;2.50;;;1.53;;
47882;SDS011;37739;50.350;7.578;2023-08-31T14:46:50;2.40;;;1.20;;
47882;SDS011;37739;50.350;7.578;2023-08-31T14:49:15;2.50;;;1.47;;
47882;SDS011;37739;50.350;7.578;2023-08-31T14:51:41;1.90;;;1.40;;
47882;SDS011;37739;50.350;7.578;2023-08-31T14:54:09;2.37;;;1.33;;
47882;SDS011;37739;50.350;7.578;2023-08-31T14:56:34;1.90;;;1.50;;
47882;SDS011;37739;50.350;7.578;2023-08-31T14:59:02;1.97;;;1.30;;
47882;SDS011;37739;50.350;7.578;2023-08-31T15:01:29;2.47;;;1.20;;
47882;SDS011;37739;50.350;7.578;2023-08-31T15:03:54;4.27;;;1.70;;
47882;SDS011;37739;50.350;7.578;2023-08-31T15:06:22;2.40;;;1.40;;